Time;durP1;ratioP1;P1;durP2;ratioP2;P2;SDS_P1;SDS_P2;PMS_P1;PMS_P2;Temp;Humidity;BMP_temperature;BMP_pressure;BME280_temperature;BME280_humidity;BME280_pressure;Samples;Min_cycle;Max_cycle;Signal;HPM_P1;HPM_P2
2024/01/03 00:01:24;;;;;;;20.40;2.70;;;10.60;99.90;;;;;;5056758;28;20032;-59
2024/01/03 00:03:52;;;;;;;21.63;2.97;;;10.70;99.90;;;;;;5056695;28;20033;-58
2024/01/03 00:06:18;;;;;;;22.58;2.88;;;10.80;99.90;;;;;;5056011;28;20064;-59
2024/01/03 00:08:43;;;;;;;20.90;2.50;;;10.90;99.90;;;;;;5056661;28;20045;-59
2024/01/03 00:11:18;;;;;;;16.10;2.58;;;10.90;99.90;;;;;;5056704;28;20029;-59
2024/01/03 00:14:06;;;;;;;21.92;2.67;;;11.00;99.90;;;;;;5060866;28;20067;-60
2024/01/03 00:16:33;;;;;;;22.08;3.38;;;11.10;99.90;;;;;;5060402;28;20025;-61
2024/01/03 00:18:59;;;;;;;20.33;3.03;;;11.10;99.90;;;;;;5060006;28;20025;-59
2024/01/03 00:21:27;;;;;;;20.95;3.28;;;11.20;99.90;;;;;;5060707;28;20047;-58
2024/01/03 00:24:04;;;;;;;19.58;3.45;;;11.40;99.90;;;;;;5059871;28;20025;-59
2024/01/03 00:26:32;;;;;;;19.85;3.92;;;11.40;99.90;;;;;;5060987;28;20033;-65
2024/01/03 00:28:59;;;;;;;25.73;3.40;;;11.30;99.90;;;;;;5060544;28;20288;-62
2024/01/03 00:31:41;;;;;;;18.98;2.90;;;11.20;99.90;;;;;;5060599;28;20036;-61
2024/01/03 00:34:27;;;;;;;13.82;2.90;;;11.20;99.90;;;;;;5060579;28;20087;-60
2024/01/03 00:36:54;;;;;;;20.63;3.30;;;11.20;99.90;;;;;;5059705;28;20040;-58
2024/01/03 00:39:25;;;;;;;18.25;2.80;;;11.20;99.90;;;;;;5060366;28;20031;-61
2024/01/03 00:41:51;;;;;;;20.77;2.90;;;11.30;99.90;;;;;;5060367;28;20029;-59
2024/01/03 00:44:17;;;;;;;26.05;3.28;;;11.40;99.90;;;;;;5060212;28;20021;-59
2024/01/03 00:46:43;;;;;;;20.77;2.88;;;11.40;99.90;;;;;;5060183;28;20063;-58
2024/01/03 00:49:11;;;;;;;16.00;2.60;;;11.40;99.90;;;;;;5060258;28;20381;-59
2024/01/03 00:51:37;;;;;;;20.90;3.03;;;11.40;99.90;;;;;;5059433;28;20033;-61
2024/01/03 00:54:03;;;;;;;19.08;3.30;;;11.40;99.90;;;;;;5060129;28;20037;-62
2024/01/03 00:56:29;;;;;;;19.58;2.80;;;11.40;99.90;;;;;;5059334;28;20124;-59
2024/01/03 00:58:55;;;;;;;17.77;3.17;;;11.30;99.90;;;;;;5060023;28;20112;-58
2024/01/03 01:01:21;;;;;;;20.45;2.85;;;11.10;99.90;;;;;;5060056;28;20077;-59
2024/01/03 01:03:47;;;;;;;19.27;2.78;;;11.00;99.90;;;;;;5059888;28;20068;-59
2024/01/03 01:06:13;;;;;;;25.48;3.08;;;11.00;99.90;;;;;;5059271;28;20029;-62
2024/01/03 01:08:39;;;;;;;19.13;2.78;;;11.10;99.90;;;;;;5059803;28;20281;-60
2024/01/03 01:11:05;;;;;;;17.20;2.75;;;11.10;99.90;;;;;;5059891;28;20040;-61
2024/01/03 01:13:31;;;;;;;17.73;3.15;;;11.20;99.90;;;;;;5059050;28;20143;-59
2024/01/03 01:15:57;;;;;;;18.52;2.92;;;11.20;99.90;;;;;;5059740;28;20041;-59
2024/01/03 01:18:22;;;;;;;17.35;2.40;;;11.20;99.90;;;;;;5059642;28;20357;-61
2024/01/03 01:20:48;;;;;;;18.48;3.03;;;11.20;99.90;;;;;;5059848;28;20052;-61
2024/01/03 01:23:15;;;;;;;18.15;3.58;;;11.10;99.90;;;;;;5042143;28;20052;-61
2024/01/03 01:25:40;;;;;;;18.40;2.33;;;11.10;99.90;;;;;;5058928;28;20301;-59
2024/01/03 01:28:07;;;;;;;19.92;2.50;;;11.10;99.90;;;;;;5059450;28;20311;-61
2024/01/03 01:30:33;;;;;;;18.65;2.88;;;11.20;99.90;;;;;;5059380;28;20131;-60
2024/01/03 01:32:59;;;;;;;17.55;2.08;;;11.20;99.90;;;;;;5059551;28;20439;-60
2024/01/03 01:35:25;;;;;;;17.88;2.42;;;11.30;99.90;;;;;;5059415;28;20041;-60
2024/01/03 01:37:54;;;;;;;11.90;2.28;;;11.20;99.90;;;;;;5059368;28;20300;-60
2024/01/03 01:40:20;;;;;;;20.00;2.40;;;11.30;99.90;;;;;;5059219;28;20094;-61
2024/01/03 01:42:46;;;;;;;11.27;2.17;;;11.20;99.90;;;;;;5058404;28;20048;-60
2024/01/03 01:45:12;;;;;;;12.00;1.85;;;11.20;99.90;;;;;;5042030;28;20029;-60
2024/01/03 01:47:39;;;;;;;14.20;1.90;;;11.20;99.90;;;;;;5059135;28;20035;-59
2024/01/03 01:50:07;;;;;;;12.80;2.10;;;11.20;99.90;;;;;;5059189;28;20047;-59
2024/01/03 01:52:33;;;;;;;14.10;1.65;;;11.20;99.90;;;;;;5059279;28;20033;-62
2024/01/03 01:54:59;;;;;;;14.73;2.05;;;11.20;99.90;;;;;;5059178;28;20048;-62
2024/01/03 01:57:25;;;;;;;12.75;2.20;;;11.30;99.90;;;;;;5058332;28;20033;-58
2024/01/03 01:59:51;;;;;;;13.65;2.00;;;11.30;99.90;;;;;;5058174;28;20034;-59
2024/01/03 02:02:17;;;;;;;11.40;2.15;;;11.20;99.90;;;;;;5058806;28;20056;-60
2024/01/03 02:04:43;;;;;;;13.75;2.28;;;11.20;99.90;;;;;;5059065;28;20025;-59
2024/01/03 02:07:09;;;;;;;16.77;2.58;;;11.20;99.90;;;;;;5058065;28;20020;-59
2024/01/03 02:09:35;;;;;;;14.98;2.08;;;11.40;99.90;;;;;;5041811;28;20032;-61
2024/01/03 02:12:01;;;;;;;16.90;2.60;;;11.30;99.90;;;;;;5041264;28;20087;-60
2024/01/03 02:14:26;;;;;;;18.33;3.17;;;11.20;99.90;;;;;;5057935;28;20396;-59
2024/01/03 02:16:52;;;;;;;19.75;2.67;;;11.10;99.90;;;;;;5057884;28;20128;-59
2024/01/03 02:19:18;;;;;;;15.75;2.80;;;11.00;99.90;;;;;;5058530;28;20399;-60
2024/01/03 02:21:44;;;;;;;17.40;2.30;;;11.00;99.90;;;;;;5041249;28;20300;-60
2024/01/03 02:24:10;;;;;;;16.95;2.80;;;11.10;99.90;;;;;;5058385;28;20274;-61
2024/01/03 02:26:35;;;;;;;13.98;2.50;;;11.10;99.90;;;;;;5057709;28;20025;-59
2024/01/03 02:29:01;;;;;;;16.75;2.42;;;11.10;99.90;;;;;;5057312;28;20086;-59
2024/01/03 02:31:27;;;;;;;21.10;2.30;;;11.10;99.90;;;;;;5058373;28;20388;-59
2024/01/03 02:33:53;;;;;;;19.65;2.55;;;11.00;99.90;;;;;;5057521;28;20056;-59
2024/01/03 02:36:19;;;;;;;14.52;2.15;;;11.00;99.90;;;;;;5057755;28;20404;-60
2024/01/03 02:38:49;;;;;;;12.18;2.25;;;11.00;99.90;;;;;;5057480;28;20047;-60
2024/01/03 02:41:15;;;;;;;18.85;2.25;;;11.00;99.90;;;;;;5058150;28;20032;-60
2024/01/03 02:43:41;;;;;;;14.85;2.28;;;11.10;99.90;;;;;;5057960;28;20028;-60
2024/01/03 02:46:07;;;;;;;25.48;3.28;;;11.10;99.90;;;;;;5058026;28;20040;-59
2024/01/03 02:48:32;;;;;;;19.33;2.42;;;11.10;99.90;;;;;;5057974;28;20036;-61
2024/01/03 02:50:58;;;;;;;16.60;2.25;;;11.00;99.90;;;;;;5057263;28;20049;-59
2024/01/03 02:53:24;;;;;;;19.55;2.28;;;10.90;99.90;;;;;;5057821;28;20094;-60
2024/01/03 02:55:49;;;;;;;17.33;2.13;;;11.00;99.90;;;;;;5057873;28;20035;-60
2024/01/03 02:58:15;;;;;;;16.25;2.10;;;10.90;99.90;;;;;;5057719;28;20452;-60
2024/01/03 03:00:41;;;;;;;21.83;2.85;;;10.90;99.90;;;;;;5057092;28;20037;-61
2024/01/03 03:03:07;;;;;;;14.05;2.00;;;10.80;99.90;;;;;;5040356;28;20049;-60
2024/01/03 03:05:33;;;;;;;8.18;1.23;;;10.80;99.90;;;;;;5057667;28;20340;-60
2024/01/03 03:07:58;;;;;;;11.93;1.77;;;10.70;99.90;;;;;;5057598;28;20021;-59
2024/01/03 03:10:24;;;;;;;13.25;1.95;;;10.80;99.90;;;;;;5057525;28;20033;-59
2024/01/03 03:12:50;;;;;;;8.38;1.85;;;10.70;99.90;;;;;;5057474;28;20044;-58
2024/01/03 03:15:16;;;;;;;18.95;2.22;;;10.70;99.90;;;;;;5056999;28;20045;-59
2024/01/03 03:17:42;;;;;;;13.00;1.92;;;10.80;99.90;;;;;;5056689;28;20308;-59
2024/01/03 03:20:08;;;;;;;16.67;2.20;;;10.90;99.90;;;;;;5056735;28;20044;-59
2024/01/03 03:22:34;;;;;;;11.82;1.50;;;10.90;99.90;;;;;;5056600;28;20037;-57
2024/01/03 03:25:00;;;;;;;9.85;1.92;;;10.90;99.90;;;;;;5057395;28;20025;-58
2024/01/03 03:27:26;;;;;;;11.60;1.60;;;10.80;99.90;;;;;;5056585;28;20409;-59
2024/01/03 03:29:52;;;;;;;7.50;1.42;;;10.70;99.90;;;;;;5057228;28;20140;-59
2024/01/03 03:32:18;;;;;;;8.98;1.30;;;10.70;99.90;;;;;;5057176;28;20045;-63
2024/01/03 03:34:43;;;;;;;9.82;1.55;;;10.70;99.90;;;;;;5056640;28;20446;-58
2024/01/03 03:37:09;;;;;;;6.45;1.02;;;10.70;99.90;;;;;;5057530;28;20040;-59
2024/01/03 03:39:35;;;;;;;9.63;1.15;;;10.70;99.90;;;;;;5056285;28;20041;-59
2024/01/03 03:42:01;;;;;;;10.93;1.60;;;10.60;99.90;;;;;;5057063;28;20056;-60
2024/01/03 03:44:27;;;;;;;8.82;1.48;;;10.60;99.90;;;;;;5056305;28;20033;-59
2024/01/03 03:46:53;;;;;;;10.35;1.45;;;10.70;99.90;;;;;;5056298;28;20037;-61
2024/01/03 03:49:18;;;;;;;6.40;1.02;;;10.70;99.90;;;;;;5056928;28;20043;-59
2024/01/03 03:51:44;;;;;;;7.25;0.90;;;10.70;99.90;;;;;;5056900;28;20036;-60
2024/01/03 03:54:10;;;;;;;7.32;1.80;;;10.80;99.90;;;;;;5056878;28;20093;-59
2024/01/03 03:56:36;;;;;;;6.57;0.77;;;10.70;99.90;;;;;;5056922;28;20029;-58
2024/01/03 03:59:02;;;;;;;10.55;1.23;;;10.50;99.90;;;;;;5056876;28;20093;-58
2024/01/03 04:01:28;;;;;;;5.25;0.82;;;10.50;99.90;;;;;;5056883;28;20041;-59
2024/01/03 04:03:53;;;;;;;7.00;0.75;;;10.50;99.90;;;;;;5056761;28;20025;-58
2024/01/03 04:06:19;;;;;;;5.90;1.08;;;10.50;99.90;;;;;;5056854;28;20103;-60
2024/01/03 04:08:47;;;;;;;12.57;1.17;;;10.50;99.90;;;;;;5056746;28;20027;-59
2024/01/03 04:11:13;;;;;;;4.32;0.93;;;10.40;99.90;;;;;;5056741;28;20021;-60
2024/01/03 04:13:39;;;;;;;6.65;0.80;;;10.20;99.90;;;;;;5056225;28;20375;-60
2024/01/03 04:16:07;;;;;;;5.25;0.80;;;10.10;99.90;;;;;;5056669;28;20102;-60
2024/01/03 04:18:33;;;;;;;4.38;1.08;;;10.00;99.90;;;;;;5056774;28;20106;-60
2024/01/03 04:20:59;;;;;;;5.13;0.80;;;10.00;99.90;;;;;;5055950;28;20025;-60
2024/01/03 04:23:25;;;;;;;9.05;1.15;;;10.00;99.90;;;;;;5055779;28;20120;-58
2024/01/03 04:25:51;;;;;;;4.93;0.73;;;9.90;99.90;;;;;;5056608;28;20053;-59
2024/01/03 04:28:17;;;;;;;6.00;1.00;;;9.90;99.90;;;;;;5056393;28;20033;-59
2024/01/03 04:30:43;;;;;;;7.75;1.20;;;9.90;99.90;;;;;;5056470;28;20367;-59
2024/01/03 04:33:08;;;;;;;6.68;1.13;;;9.90;99.90;;;;;;5056571;28;20029;-59
2024/01/03 04:35:34;;;;;;;7.60;1.40;;;9.80;99.90;;;;;;5056561;28;20036;-59
2024/01/03 04:38:02;;;;;;;6.78;1.17;;;9.80;99.90;;;;;;5056514;28;20025;-60
2024/01/03 04:40:32;;;;;;;11.20;1.52;;;9.90;99.90;;;;;;5055666;28;20415;-59
2024/01/03 04:42:59;;;;;;;5.90;1.23;;;9.90;99.90;;;;;;5056634;28;20025;-59
2024/01/03 04:45:24;;;;;;;8.13;1.42;;;9.90;99.90;;;;;;5056337;28;20393;-59
2024/01/03 04:47:50;;;;;;;7.30;1.35;;;9.90;99.90;;;;;;5056403;28;20044;-60
2024/01/03 04:50:17;;;;;;;9.57;1.63;;;9.90;99.90;;;;;;5056355;28;20058;-59
2024/01/03 04:52:43;;;;;;;10.38;1.33;;;9.90;99.90;;;;;;5056539;28;20036;-59
2024/01/03 04:55:09;;;;;;;6.30;0.85;;;9.80;99.90;;;;;;5056313;28;20033;-60
2024/01/03 04:57:36;;;;;;;10.00;1.25;;;9.90;99.90;;;;;;5056706;28;20025;-60
2024/01/03 05:00:03;;;;;;;6.50;0.98;;;9.90;99.90;;;;;;5060010;28;20037;-59
2024/01/03 05:02:29;;;;;;;4.72;0.90;;;9.90;99.90;;;;;;5059847;28;20083;-59
2024/01/03 05:04:54;;;;;;;5.82;0.98;;;9.90;99.90;;;;;;5059995;28;20053;-59
2024/01/03 05:07:20;;;;;;;5.30;1.05;;;9.90;99.90;;;;;;5059902;28;20028;-60
2024/01/03 05:09:46;;;;;;;7.18;0.90;;;9.90;99.90;;;;;;5059866;28;20048;-59
2024/01/03 05:12:12;;;;;;;8.73;0.98;;;9.90;99.90;;;;;;5059134;28;20029;-58
2024/01/03 05:14:38;;;;;;;5.40;0.82;;;9.80;99.90;;;;;;5059068;28;20029;-58
2024/01/03 05:17:04;;;;;;;5.40;0.75;;;9.70;99.90;;;;;;5059244;28;20079;-58
2024/01/03 05:19:29;;;;;;;5.47;0.60;;;9.80;99.90;;;;;;5059641;28;20297;-57
2024/01/03 05:21:55;;;;;;;4.70;0.70;;;9.70;99.90;;;;;;5059628;28;20036;-57
2024/01/03 05:24:21;;;;;;;4.68;0.60;;;9.60;99.90;;;;;;5059691;28;20095;-58
2024/01/03 05:26:47;;;;;;;3.88;0.40;;;9.60;99.90;;;;;;5059129;28;20029;-58
2024/01/03 05:29:13;;;;;;;4.50;0.80;;;9.50;99.90;;;;;;5058622;28;20434;-58
2024/01/03 05:31:39;;;;;;;6.85;0.77;;;9.50;99.90;;;;;;5059693;28;20064;-58
2024/01/03 05:34:06;;;;;;;5.63;0.93;;;9.50;99.90;;;;;;5059306;28;20037;-58
2024/01/03 05:36:32;;;;;;;10.70;1.00;;;9.50;99.90;;;;;;5059639;28;20040;-57
2024/01/03 05:38:58;;;;;;;5.40;0.68;;;9.40;99.90;;;;;;5059253;28;20048;-57
2024/01/03 05:41:24;;;;;;;6.60;0.93;;;9.50;99.90;;;;;;5059269;28;20028;-59
2024/01/03 05:43:49;;;;;;;8.32;0.90;;;9.50;99.90;;;;;;5059182;28;20308;-57
2024/01/03 05:46:15;;;;;;;5.40;0.80;;;9.40;99.90;;;;;;5059190;28;20021;-58
2024/01/03 05:48:42;;;;;;;3.88;0.80;;;9.40;99.90;;;;;;5059311;28;20021;-58
2024/01/03 05:51:08;;;;;;;5.82;0.95;;;9.40;99.90;;;;;;5059038;28;20051;-58
2024/01/03 05:53:34;;;;;;;3.90;0.50;;;9.40;99.90;;;;;;5058949;28;20035;-58
2024/01/03 05:56:00;;;;;;;2.75;0.50;;;9.30;99.90;;;;;;5058421;28;20479;-55
2024/01/03 05:58:26;;;;;;;1.80;0.30;;;9.10;99.90;;;;;;5058102;28;20124;-59
2024/01/03 06:00:52;;;;;;;1.02;0.38;;;9.00;99.90;;;;;;5058878;28;20124;-60
2024/01/03 06:03:18;;;;;;;4.60;0.40;;;9.00;99.90;;;;;;5059095;28;20368;-58
2024/01/03 06:05:44;;;;;;;2.10;0.30;;;8.90;99.90;;;;;;5058966;28;20139;-59
2024/01/03 06:08:10;;;;;;;2.03;0.20;;;8.90;99.90;;;;;;5058690;28;20029;-58
2024/01/03 06:10:36;;;;;;;2.97;0.38;;;8.90;99.90;;;;;;5057799;28;20021;-58
2024/01/03 06:13:02;;;;;;;2.47;0.30;;;8.90;99.90;;;;;;5058750;28;20096;-56
2024/01/03 06:15:28;;;;;;;3.92;0.73;;;8.90;99.90;;;;;;5058597;28;20052;-55
2024/01/03 06:17:54;;;;;;;1.70;0.47;;;8.90;99.90;;;;;;5058547;28;20029;-58
2024/01/03 06:20:19;;;;;;;3.83;0.30;;;8.80;99.90;;;;;;5058752;28;20377;-58
2024/01/03 06:22:45;;;;;;;1.73;0.35;;;8.80;99.90;;;;;;5058018;28;20037;-57
2024/01/03 06:25:11;;;;;;;2.40;0.30;;;8.80;99.90;;;;;;5058408;28;20343;-57
2024/01/03 06:27:37;;;;;;;1.67;0.15;;;8.80;99.90;;;;;;5058366;28;20040;-56
2024/01/03 06:30:03;;;;;;;1.73;0.30;;;8.80;99.90;;;;;;5058227;28;20459;-55
2024/01/03 06:32:29;;;;;;;1.48;0.20;;;8.80;99.90;;;;;;5058276;28;20413;-56
2024/01/03 06:34:55;;;;;;;2.47;0.30;;;8.70;99.90;;;;;;5058357;28;20037;-56
2024/01/03 06:37:20;;;;;;;1.13;0.30;;;8.80;99.90;;;;;;5057380;28;20032;-56
2024/01/03 06:39:46;;;;;;;3.13;0.30;;;8.80;99.90;;;;;;5057385;28;20113;-57
2024/01/03 06:42:12;;;;;;;1.30;0.20;;;8.70;99.90;;;;;;5058146;28;20056;-57
2024/01/03 06:44:38;;;;;;;4.47;0.32;;;8.70;99.90;;;;;;5057421;28;20036;-56
2024/01/03 06:47:04;;;;;;;2.47;0.40;;;8.60;99.90;;;;;;5058009;28;20296;-58
2024/01/03 06:49:29;;;;;;;5.63;0.50;;;8.70;99.90;;;;;;5057337;28;20037;-56
2024/01/03 06:51:58;;;;;;;4.32;0.50;;;8.80;99.90;;;;;;5058166;28;20308;-56
2024/01/03 06:54:24;;;;;;;5.60;0.70;;;8.80;99.90;;;;;;5057879;28;20021;-57
2024/01/03 06:56:49;;;;;;;7.20;0.70;;;8.90;99.90;;;;;;5057820;28;20396;-56
2024/01/03 06:59:15;;;;;;;9.45;1.15;;;8.90;99.90;;;;;;5057805;28;20086;-57
2024/01/03 07:01:41;;;;;;;5.35;1.02;;;8.90;99.90;;;;;;5057747;28;20029;-57
2024/01/03 07:04:07;;;;;;;7.18;1.05;;;9.00;99.90;;;;;;5057550;28;20044;-57
2024/01/03 07:06:32;;;;;;;8.50;0.77;;;9.00;99.90;;;;;;5057835;28;20035;-57
2024/01/03 07:08:58;;;;;;;5.85;0.98;;;8.90;99.90;;;;;;5057639;28;20025;-59
2024/01/03 07:11:24;;;;;;;6.38;0.70;;;9.00;99.90;;;;;;5056847;28;20021;-57
2024/01/03 07:13:50;;;;;;;7.13;1.00;;;9.00;99.90;;;;;;5057667;28;20112;-58
2024/01/03 07:16:16;;;;;;;8.63;0.98;;;9.00;99.90;;;;;;5057401;28;20043;-58
2024/01/03 07:18:42;;;;;;;7.00;0.93;;;9.00;99.90;;;;;;5057421;28;20037;-59
2024/01/03 07:21:08;;;;;;;7.82;1.02;;;9.10;99.90;;;;;;5057349;28;20469;-59
2024/01/03 07:23:34;;;;;;;9.32;0.90;;;9.10;99.90;;;;;;5057429;28;20397;-58
2024/01/03 07:26:00;;;;;;;8.18;1.10;;;9.10;99.90;;;;;;5057322;28;20056;-58
2024/01/03 07:28:26;;;;;;;9.20;1.00;;;9.10;99.90;;;;;;5057269;28;20044;-58
2024/01/03 07:30:52;;;;;;;7.40;1.10;;;9.00;99.90;;;;;;5057123;28;20071;-57
2024/01/03 07:33:17;;;;;;;9.75;0.95;;;9.00;99.90;;;;;;5056430;28;20056;-57
2024/01/03 07:35:43;;;;;;;10.15;1.35;;;9.00;99.90;;;;;;5056178;28;20025;-58
2024/01/03 07:38:09;;;;;;;7.63;1.20;;;9.10;99.90;;;;;;5056963;28;20041;-58
2024/01/03 07:40:35;;;;;;;9.80;1.50;;;9.10;99.90;;;;;;5057091;28;20282;-58
2024/01/03 07:43:01;;;;;;;7.75;1.02;;;9.20;99.90;;;;;;5056948;28;20048;-57
2024/01/03 07:45:27;;;;;;;8.27;1.25;;;9.20;99.90;;;;;;5056868;28;20041;-59
2024/01/03 07:47:54;;;;;;;11.57;1.20;;;9.30;99.90;;;;;;5056941;28;20032;-58
2024/01/03 07:50:19;;;;;;;9.95;1.70;;;9.20;99.90;;;;;;5056050;28;20404;-58
2024/01/03 07:52:45;;;;;;;12.63;1.85;;;9.30;99.90;;;;;;5056153;28;20066;-59
2024/01/03 07:55:12;;;;;;;13.50;1.60;;;9.30;99.90;;;;;;5056841;28;20132;-58
2024/01/03 07:57:37;;;;;;;12.02;1.23;;;9.40;99.90;;;;;;5056981;28;20055;-58
2024/01/03 08:00:04;;;;;;;16.02;1.92;;;9.40;99.90;;;;;;5056269;28;20123;-60
2024/01/03 08:02:31;;;;;;;15.35;1.58;;;9.40;99.90;;;;;;5056726;28;20032;-59
2024/01/03 08:04:56;;;;;;;14.50;2.05;;;9.40;99.90;;;;;;5056731;28;20098;-59
2024/01/03 08:07:22;;;;;;;19.60;2.42;;;9.50;99.90;;;;;;5056803;28;20355;-60
2024/01/03 08:09:50;;;;;;;15.65;1.88;;;9.50;99.90;;;;;;5056649;28;20040;-58
2024/01/03 08:12:16;;;;;;;16.73;2.72;;;9.50;99.90;;;;;;5056428;28;20048;-58
2024/01/03 08:14:42;;;;;;;17.52;2.05;;;9.60;99.90;;;;;;5056626;28;20278;-59
2024/01/03 08:17:08;;;;;;;13.98;2.05;;;9.60;99.90;;;;;;5056505;28;20120;-59
2024/01/03 08:19:34;;;;;;;15.68;2.17;;;9.60;99.90;;;;;;5056496;28;20028;-60
2024/01/03 08:22:00;;;;;;;14.43;1.63;;;9.60;99.90;;;;;;5056432;28;20029;-59
2024/01/03 08:24:26;;;;;;;17.00;1.73;;;9.60;99.90;;;;;;5056413;28;20098;-59
2024/01/03 08:26:52;;;;;;;13.48;1.70;;;9.60;99.90;;;;;;5056411;28;20033;-59
2024/01/03 08:29:18;;;;;;;13.38;1.85;;;9.60;99.90;;;;;;5056305;28;20052;-59
2024/01/03 08:31:47;;;;;;;18.58;2.00;;;9.70;99.90;;;;;;5055629;28;20040;-59
2024/01/03 08:34:13;;;;;;;12.90;1.90;;;9.70;99.90;;;;;;5059224;28;20266;-60
2024/01/03 08:36:44;;;;;;;16.33;1.90;;;9.70;99.90;;;;;;5059957;28;20048;-58
2024/01/03 08:39:11;;;;;;;14.70;2.17;;;9.90;99.90;;;;;;5059693;28;20039;-58
2024/01/03 08:41:37;;;;;;;11.50;2.28;;;9.90;99.90;;;;;;5060302;28;20039;-58
2024/01/03 08:44:05;;;;;;;13.48;1.92;;;10.00;99.90;;;;;;5060153;28;20304;-58
2024/01/03 08:46:41;;;;;;;14.55;2.25;;;10.00;99.90;;;;;;5059446;28;20312;-58
2024/01/03 08:49:07;;;;;;;21.38;2.67;;;10.10;99.90;;;;;;5060133;28;20194;-58
2024/01/03 08:51:33;;;;;;;12.52;2.17;;;10.20;99.90;;;;;;5059424;28;20029;-57
2024/01/03 08:53:59;;;;;;;16.33;2.55;;;10.20;99.90;;;;;;5060237;28;20040;-58
2024/01/03 08:56:25;;;;;;;19.98;2.33;;;10.20;99.90;;;;;;5059394;28;20331;-58
2024/01/03 08:58:51;;;;;;;18.52;2.28;;;10.20;99.90;;;;;;5059995;28;20474;-59
2024/01/03 09:01:21;;;;;;;21.65;2.72;;;10.20;99.90;;;;;;5059944;28;20037;-58
2024/01/03 09:03:48;;;;;;;16.48;1.90;;;10.30;99.90;;;;;;5059286;28;20428;-58
2024/01/03 09:06:18;;;;;;;20.02;2.08;;;10.30;99.90;;;;;;5059269;28;20052;-59
2024/01/03 09:08:46;;;;;;;23.48;3.00;;;10.30;99.90;;;;;;5059786;28;20032;-59
2024/01/03 09:11:13;;;;;;;12.95;2.53;;;10.50;99.90;;;;;;5059694;28;20040;-58
2024/01/03 09:13:41;;;;;;;14.23;2.25;;;10.40;99.90;;;;;;5059627;28;20036;-58
2024/01/03 09:16:11;;;;;;;23.05;3.13;;;10.30;99.90;;;;;;5059535;28;20086;-63
2024/01/03 09:18:37;;;;;;;26.33;3.25;;;10.30;99.90;;;;;;5059493;28;20090;-59
2024/01/03 09:21:03;;;;;;;20.10;3.20;;;10.40;99.90;;;;;;5059513;28;20029;-59
2024/01/03 09:23:30;;;;;;;14.40;2.15;;;10.40;99.90;;;;;;5059426;28;20029;-59
2024/01/03 09:25:55;;;;;;;16.20;2.40;;;10.20;99.90;;;;;;5059534;28;20029;-58
2024/01/03 09:28:22;;;;;;;20.35;2.47;;;10.00;99.90;;;;;;5059354;28;20040;-59
2024/01/03 09:30:48;;;;;;;23.70;3.03;;;10.00;99.90;;;;;;5059353;28;20103;-58
2024/01/03 09:33:14;;;;;;;13.32;2.45;;;10.00;99.90;;;;;;5059255;28;20064;-58
2024/01/03 09:35:40;;;;;;;21.55;2.80;;;10.00;99.90;;;;;;5058830;28;20043;-59
2024/01/03 09:38:05;;;;;;;20.73;2.42;;;10.10;99.90;;;;;;5059329;28;20040;-61
2024/01/03 09:40:33;;;;;;;18.75;2.58;;;10.10;99.90;;;;;;5059403;28;20025;-58
2024/01/03 09:43:02;;;;;;;15.88;2.15;;;10.20;99.90;;;;;;5058992;28;20120;-58
2024/01/03 09:45:30;;;;;;;13.73;2.08;;;10.20;99.90;;;;;;5057701;28;20063;-58
2024/01/03 09:47:56;;;;;;;12.65;2.00;;;10.20;99.90;;;;;;5058903;28;20031;-58
2024/01/03 09:50:22;;;;;;;17.25;2.13;;;10.20;99.90;;;;;;5058216;28;20087;-58
2024/01/03 09:52:48;;;;;;;17.13;2.53;;;10.30;99.90;;;;;;5058873;28;20036;-58
2024/01/03 09:55:15;;;;;;;13.57;2.20;;;10.30;99.90;;;;;;5058970;28;20057;-58
2024/01/03 09:57:42;;;;;;;16.05;2.20;;;10.40;99.90;;;;;;5058776;28;20039;-59
2024/01/03 10:00:08;;;;;;;19.30;2.47;;;10.40;99.90;;;;;;5058883;28;20036;-58
2024/01/03 10:02:38;;;;;;;14.10;1.95;;;10.40;99.90;;;;;;5058174;28;20033;-59
2024/01/03 10:05:05;;;;;;;14.55;1.92;;;10.40;99.90;;;;;;5058806;28;20039;-59
2024/01/03 10:07:35;;;;;;;14.80;2.22;;;10.50;99.90;;;;;;5058694;28;20024;-59
2024/01/03 10:10:05;;;;;;;11.63;1.95;;;10.60;99.90;;;;;;5058771;28;20032;-59
2024/01/03 10:12:34;;;;;;;14.85;2.10;;;10.50;99.90;;;;;;5058890;28;20024;-59
2024/01/03 10:15:16;;;;;;;17.55;2.90;;;10.60;99.90;;;;;;5057873;28;20052;-61
2024/01/03 10:17:46;;;;;;;15.35;2.47;;;10.60;99.90;;;;;;5058490;28;20048;-59
2024/01/03 10:20:28;;;;;;;6.78;1.73;;;10.60;99.90;;;;;;5058436;28;20079;-59
2024/01/03 10:23:04;;;;;;;10.88;2.20;;;10.70;99.90;;;;;;5058398;28;20381;-59
2024/01/03 10:25:30;;;;;;;10.70;2.00;;;10.70;99.90;;;;;;5058681;28;20064;-59
2024/01/03 10:28:01;;;;;;;9.88;1.95;;;10.80;99.90;;;;;;5058489;28;20043;-59
2024/01/03 10:30:27;;;;;;;13.02;2.00;;;10.80;99.90;;;;;;5057431;28;20044;-59
2024/01/03 10:33:01;;;;;;;8.57;1.65;;;10.80;99.90;;;;;;5058245;28;20028;-59
2024/01/03 10:35:31;;;;;;;11.35;1.67;;;10.70;99.90;;;;;;5058214;28;20029;-59
2024/01/03 10:38:01;;;;;;;13.38;2.33;;;10.70;99.90;;;;;;5058225;28;20032;-58
2024/01/03 10:40:33;;;;;;;7.82;1.15;;;10.60;99.90;;;;;;5058433;28;20396;-59
2024/01/03 10:42:59;;;;;;;7.18;1.20;;;10.50;99.90;;;;;;5058143;28;20037;-59
2024/01/03 10:45:26;;;;;;;8.82;1.90;;;10.30;99.90;;;;;;5058034;28;20401;-58
2024/01/03 10:47:52;;;;;;;11.85;1.50;;;10.20;99.90;;;;;;5057970;28;20029;-59
2024/01/03 10:50:18;;;;;;;12.15;1.40;;;10.10;99.90;;;;;;5057967;28;20061;-60
2024/01/03 10:52:45;;;;;;;8.98;1.50;;;10.10;99.90;;;;;;5058124;28;20392;-59
2024/01/03 10:55:25;;;;;;;11.57;1.60;;;10.10;99.90;;;;;;5057525;28;20304;-60
2024/01/03 10:57:57;;;;;;;15.38;2.13;;;10.20;99.90;;;;;;5057033;28;20029;-58
2024/01/03 11:00:47;;;;;;;10.55;1.90;;;10.10;99.90;;;;;;5057840;28;20056;-58
2024/01/03 11:03:39;;;;;;;9.90;1.67;;;10.10;99.90;;;;;;5057548;28;20337;-58
2024/01/03 11:06:19;;;;;;;16.35;2.08;;;10.10;99.90;;;;;;5057705;28;20086;-58
2024/01/03 11:08:50;;;;;;;10.73;1.52;;;10.00;99.90;;;;;;5057522;28;20046;-58
2024/01/03 11:11:32;;;;;;;12.55;1.42;;;10.00;99.90;;;;;;5057551;28;20116;-58
2024/01/03 11:14:02;;;;;;;10.02;1.55;;;10.10;99.90;;;;;;5056787;28;20041;-58
2024/01/03 11:16:39;;;;;;;11.63;1.80;;;10.10;99.90;;;;;;5057493;28;20071;-58
2024/01/03 11:19:08;;;;;;;12.32;2.00;;;10.00;99.90;;;;;;5057410;28;20120;-58
2024/01/03 11:21:37;;;;;;;13.15;1.90;;;9.90;99.90;;;;;;5057366;28;20045;-57
2024/01/03 11:24:06;;;;;;;12.77;2.00;;;9.90;99.90;;;;;;5057359;28;20033;-57
2024/01/03 11:26:56;;;;;;;12.07;1.90;;;9.90;99.90;;;;;;5056709;28;20041;-57
2024/01/03 11:29:48;;;;;;;17.85;2.10;;;9.80;99.90;;;;;;5057066;28;20112;-58
2024/01/03 11:32:24;;;;;;;11.77;1.67;;;9.80;99.90;;;;;;5056501;28;20025;-58
2024/01/03 11:34:50;;;;;;;14.60;1.98;;;9.80;99.90;;;;;;5057038;28;20029;-57
2024/01/03 11:37:18;;;;;;;16.05;2.00;;;9.90;99.90;;;;;;5056977;28;20056;-58
2024/01/03 11:39:54;;;;;;;14.23;2.38;;;9.90;99.90;;;;;;5057118;28;20032;-58
2024/01/03 11:42:21;;;;;;;11.52;2.20;;;9.80;99.90;;;;;;5056988;28;20102;-58
2024/01/03 11:45:08;;;;;;;16.77;2.10;;;9.80;99.90;;;;;;5056995;28;20027;-57
2024/01/03 11:47:49;;;;;;;13.02;2.10;;;9.80;99.90;;;;;;5056222;28;20029;-57
2024/01/03 11:50:16;;;;;;;9.48;1.50;;;9.80;99.90;;;;;;5057014;28;20033;-56
2024/01/03 11:52:47;;;;;;;12.88;2.60;;;9.80;99.90;;;;;;5057064;28;20025;-57
2024/01/03 11:55:16;;;;;;;16.33;2.38;;;9.90;99.90;;;;;;5056882;28;20297;-58
2024/01/03 11:57:48;;;;;;;11.30;2.25;;;9.90;99.90;;;;;;5056745;28;20039;-56
2024/01/03 12:00:20;;;;;;;8.23;1.20;;;9.90;99.90;;;;;;5056803;28;20029;-58
2024/01/03 12:02:53;;;;;;;6.78;1.50;;;9.90;99.90;;;;;;5056714;28;20094;-57
2024/01/03 12:05:21;;;;;;;8.32;1.65;;;9.90;99.90;;;;;;5056576;28;20029;-57
2024/01/03 12:07:48;;;;;;;7.97;1.30;;;9.90;99.90;;;;;;5055892;28;20424;-58
2024/01/03 12:10:15;;;;;;;9.13;1.25;;;9.80;99.90;;;;;;5056693;28;20308;-58
2024/01/03 12:12:41;;;;;;;6.80;1.58;;;9.80;99.90;;;;;;5056853;28;20368;-56
2024/01/03 12:15:09;;;;;;;9.50;1.60;;;9.90;99.90;;;;;;5056653;28;20301;-57
2024/01/03 12:17:35;;;;;;;11.90;1.42;;;9.90;99.90;;;;;;5056615;28;20351;-57
2024/01/03 12:20:08;;;;;;;11.50;1.73;;;9.90;99.90;;;;;;5055921;28;20041;-57
2024/01/03 12:22:34;;;;;;;;;;;9.90;99.90;;;;;;5056140;28;20033;-56
2024/01/03 12:25:00;;;;;;;5.60;1.33;;;9.90;99.90;;;;;;5055925;28;19908;-57
2024/01/03 12:27:26;;;;;;;11.10;1.55;;;9.90;99.90;;;;;;5056550;28;20029;-57
2024/01/03 12:30:08;;;;;;;10.55;1.77;;;9.90;99.90;;;;;;5056466;28;20037;-57
2024/01/03 12:32:35;;;;;;;;;;;10.00;99.90;;;;;;5056998;28;20112;-57
2024/01/03 12:35:01;;;;;;;11.20;1.75;;;10.00;99.90;;;;;;5056719;28;20000;-58
2024/01/03 12:37:28;;;;;;;10.60;1.85;;;10.10;99.90;;;;;;5056402;28;20126;-59
2024/01/03 12:39:54;;;;;;;10.60;1.63;;;10.20;99.90;;;;;;5056479;28;20032;-58
2024/01/03 12:42:20;;;;;;;9.50;1.48;;;10.30;99.90;;;;;;5056101;28;20037;-57
2024/01/03 12:44:46;;;;;;;9.18;1.45;;;10.30;99.90;;;;;;5055816;28;20052;-57
2024/01/03 12:47:13;;;;;;;11.43;1.63;;;10.40;99.90;;;;;;5055470;28;20032;-58